Terminal Aerodrome Forecast
Issued by NWS

Home | Current Version | Previous Version | Text Only | Print | Product List | Glossary On
Versions: 1 2 3 4 5 6 7 8 9 10 11 12 13 14 15
000
FTUS44 KBMX 260520
TAFEET
TAF
KEET 260520Z 2606/2706 20003KT P6SM SKC
     FM260800 23007KT 4SM BR OVC007
     FM261400 29012KT P6SM SCT250=

USA.gov is the U.S. government's official web portal to all federal, state and local government web resources and services.